sensor_id;sensor_type;location;lat;lon;timestamp;pressure;altitude;pressure_sealevel;temperature;humidity
30073;BME280;16897;52.422;13.678;2022-10-30T00:01:20;101561.09;;;17.63;60.89
30073;BME280;16897;52.422;13.678;2022-10-30T00:05:22;101592.34;;;17.69;60.82
30073;BME280;16897;52.422;13.678;2022-10-30T00:09:24;101588.34;;;17.64;60.70
30073;BME280;16897;52.422;13.678;2022-10-30T00:13:26;101544.25;;;17.28;60.79
30073;BME280;16897;52.422;13.678;2022-10-30T00:17:28;101571.47;;;17.41;60.86
30073;BME280;16897;52.422;13.678;2022-10-30T00:21:30;101561.34;;;17.35;60.86
30073;BME280;16897;52.422;13.678;2022-10-30T00:25:34;101573.38;;;17.39;60.91
30073;BME280;16897;52.422;13.678;2022-10-30T00:29:36;101512.72;;;17.00;60.78
30073;BME280;16897;52.422;13.678;2022-10-30T00:33:38;101520.75;;;16.99;60.75
30073;BME280;16897;52.422;13.678;2022-10-30T00:37:40;101547.84;;;17.14;60.67
30073;BME280;16897;52.422;13.678;2022-10-30T00:41:44;101571.06;;;17.21;60.94
30073;BME280;16897;52.422;13.678;2022-10-30T00:45:46;101560.13;;;17.15;60.81
30073;BME280;16897;52.422;13.678;2022-10-30T00:50:10;101559.69;;;17.08;60.90
30073;BME280;16897;52.422;13.678;2022-10-30T00:54:15;101546.25;;;16.98;60.83
30073;BME280;16897;52.422;13.678;2022-10-30T00:58:39;101548.19;;;16.96;61.04
30073;BME280;16897;52.422;13.678;2022-10-30T01:02:43;101547.84;;;17.01;60.92
30073;BME280;16897;52.422;13.678;2022-10-30T01:06:47;101479.44;;;16.59;60.93
30073;BME280;16897;52.422;13.678;2022-10-30T01:10:53;101459.72;;;16.52;60.97
30073;BME280;16897;52.422;13.678;2022-10-30T01:14:57;101537.94;;;16.92;60.68
30073;BME280;16897;52.422;13.678;2022-10-30T01:28:25;101532.22;;;16.72;60.94
30073;BME280;16897;52.422;13.678;2022-10-30T01:37:15;101525.88;;;16.62;60.97
30073;BME280;16897;52.422;13.678;2022-10-30T01:41:20;101519.84;;;16.60;60.93
30073;BME280;16897;52.422;13.678;2022-10-30T01:50:16;101514.16;;;16.53;60.89
30073;BME280;16897;52.422;13.678;2022-10-30T01:54:37;101494.34;;;16.48;61.06
30073;BME280;16897;52.422;13.678;2022-10-30T01:59:02;101499.16;;;16.41;61.06
30073;BME280;16897;52.422;13.678;2022-10-30T02:03:08;101493.59;;;16.46;61.19
30073;BME280;16897;52.422;13.678;2022-10-30T02:07:11;101490.41;;;16.41;60.95
30073;BME280;16897;52.422;13.678;2022-10-30T02:11:19;101489.34;;;16.43;61.08
30073;BME280;16897;52.422;13.678;2022-10-30T02:15:21;101483.34;;;16.41;61.03
30073;BME280;16897;52.422;13.678;2022-10-30T02:19:23;101480.81;;;16.40;60.98
30073;BME280;16897;52.422;13.678;2022-10-30T02:23:27;101480.91;;;16.38;60.95
30073;BME280;16897;52.422;13.678;2022-10-30T02:27:29;101471.84;;;16.29;60.89
30073;BME280;16897;52.422;13.678;2022-10-30T02:31:31;101483.13;;;16.31;61.08
30073;BME280;16897;52.422;13.678;2022-10-30T02:35:33;101468.66;;;16.24;60.93
30073;BME280;16897;52.422;13.678;2022-10-30T02:39:35;101474.78;;;16.25;61.06
30073;BME280;16897;52.422;13.678;2022-10-30T02:43:38;101479.50;;;16.20;61.19
30073;BME280;16897;52.422;13.678;2022-10-30T02:47:40;101439.81;;;15.96;61.07
30073;BME280;16897;52.422;13.678;2022-10-30T02:51:41;101464.41;;;16.09;61.34
30073;BME280;16897;52.422;13.678;2022-10-30T02:55:43;101472.78;;;16.15;61.24
30073;BME280;16897;52.422;13.678;2022-10-30T02:59:45;101462.53;;;16.11;61.07
30073;BME280;16897;52.422;13.678;2022-10-30T03:03:47;101472.22;;;16.10;61.10
30073;BME280;16897;52.422;13.678;2022-10-30T03:07:49;101448.06;;;15.91;61.15
30073;BME280;16897;52.422;13.678;2022-10-30T03:11:51;101447.81;;;15.81;61.22
30073;BME280;16897;52.422;13.678;2022-10-30T03:16:03;101485.06;;;16.02;61.21
30073;BME280;16897;52.422;13.678;2022-10-30T03:20:07;101473.03;;;15.98;61.27
30073;BME280;16897;52.422;13.678;2022-10-30T03:24:09;101481.97;;;15.96;61.20
30073;BME280;16897;52.422;13.678;2022-10-30T03:28:11;101481.47;;;15.90;61.28
30073;BME280;16897;52.422;13.678;2022-10-30T03:32:13;101452.16;;;15.68;61.01
30073;BME280;16897;52.422;13.678;2022-10-30T03:36:26;101487.66;;;15.89;61.28
30073;BME280;16897;52.422;13.678;2022-10-30T03:40:27;101454.41;;;15.74;61.21
30073;BME280;16897;52.422;13.678;2022-10-30T03:44:29;101457.78;;;15.76;61.28
30073;BME280;16897;52.422;13.678;2022-10-30T03:48:31;101411.41;;;15.46;61.28
30073;BME280;16897;52.422;13.678;2022-10-30T03:52:34;101474.13;;;15.81;61.21
30073;BME280;16897;52.422;13.678;2022-10-30T03:56:36;101422.50;;;15.52;61.10
30073;BME280;16897;52.422;13.678;2022-10-30T04:00:39;101455.06;;;15.78;61.28
30073;BME280;16897;52.422;13.678;2022-10-30T04:04:41;101433.91;;;15.65;61.25
30073;BME280;16897;52.422;13.678;2022-10-30T04:08:43;101401.28;;;15.40;61.21
30073;BME280;16897;52.422;13.678;2022-10-30T04:12:45;101434.88;;;15.64;61.41
30073;BME280;16897;52.422;13.678;2022-10-30T04:16:48;101367.44;;;15.21;61.13
30073;BME280;16897;52.422;13.678;2022-10-30T04:20:50;101439.47;;;15.60;61.19
30073;BME280;16897;52.422;13.678;2022-10-30T04:24:52;101413.50;;;15.41;61.42
30073;BME280;16897;52.422;13.678;2022-10-30T04:28:55;101433.44;;;15.45;61.16
30073;BME280;16897;52.422;13.678;2022-10-30T04:32:57;101443.31;;;15.42;61.37
30073;BME280;16897;52.422;13.678;2022-10-30T04:37:04;101458.50;;;15.51;61.52
30073;BME280;16897;52.422;13.678;2022-10-30T04:41:06;101419.00;;;15.24;61.40
30073;BME280;16897;52.422;13.678;2022-10-30T04:45:22;101388.59;;;15.05;61.36
30073;BME280;16897;52.422;13.678;2022-10-30T04:49:24;101473.91;;;15.57;61.48
30073;BME280;16897;52.422;13.678;2022-10-30T04:53:26;101456.38;;;15.43;61.39
30073;BME280;16897;52.422;13.678;2022-10-30T04:57:35;101460.88;;;15.41;61.53
30073;BME280;16897;52.422;13.678;2022-10-30T05:01:38;101461.44;;;15.46;61.56
30073;BME280;16897;52.422;13.678;2022-10-30T05:05:41;101484.72;;;15.53;61.74
30073;BME280;16897;52.422;13.678;2022-10-30T05:09:44;101425.22;;;15.23;61.56
30073;BME280;16897;52.422;13.678;2022-10-30T05:13:47;101421.53;;;15.25;61.87
30073;BME280;16897;52.422;13.678;2022-10-30T05:17:51;101476.66;;;15.56;61.77
30073;BME280;16897;52.422;13.678;2022-10-30T05:21:56;101456.16;;;15.46;61.54
30073;BME280;16897;52.422;13.678;2022-10-30T05:26:01;101437.09;;;15.43;61.67
30073;BME280;16897;52.422;13.678;2022-10-30T05:30:05;101449.22;;;15.45;61.81
30073;BME280;16897;52.422;13.678;2022-10-30T05:34:07;101402.75;;;15.17;61.76
30073;BME280;16897;52.422;13.678;2022-10-30T05:38:13;101439.44;;;15.47;61.82
30073;BME280;16897;52.422;13.678;2022-10-30T05:42:15;101462.53;;;15.57;61.95
30073;BME280;16897;52.422;13.678;2022-10-30T05:46:19;101421.59;;;15.38;61.88
30073;BME280;16897;52.422;13.678;2022-10-30T05:50:22;101438.94;;;15.55;61.90
30073;BME280;16897;52.422;13.678;2022-10-30T05:54:43;101432.44;;;15.61;61.90
30073;BME280;16897;52.422;13.678;2022-10-30T05:58:54;101415.16;;;15.57;62.01
30073;BME280;16897;52.422;13.678;2022-10-30T06:03:06;101395.53;;;15.48;61.99
30073;BME280;16897;52.422;13.678;2022-10-30T06:07:10;101431.16;;;15.54;62.09
30073;BME280;16897;52.422;13.678;2022-10-30T06:11:12;101434.91;;;15.49;61.99
30073;BME280;16897;52.422;13.678;2022-10-30T06:15:16;101377.88;;;15.23;62.10
30073;BME280;16897;52.422;13.678;2022-10-30T06:19:18;101346.19;;;15.24;62.14
30073;BME280;16897;52.422;13.678;2022-10-30T06:23:21;101427.66;;;15.53;62.06
30073;BME280;16897;52.422;13.678;2022-10-30T06:27:28;101417.88;;;15.55;62.20
30073;BME280;16897;52.422;13.678;2022-10-30T06:31:30;101421.44;;;15.54;62.22
30073;BME280;16897;52.422;13.678;2022-10-30T06:35:34;101423.03;;;15.57;62.25
30073;BME280;16897;52.422;13.678;2022-10-30T06:39:36;101429.44;;;15.53;62.38
30073;BME280;16897;52.422;13.678;2022-10-30T06:43:56;101415.97;;;15.57;62.36
30073;BME280;16897;52.422;13.678;2022-10-30T06:47:59;101437.31;;;15.67;62.36
30073;BME280;16897;52.422;13.678;2022-10-30T06:52:04;101393.00;;;15.46;62.40
30073;BME280;16897;52.422;13.678;2022-10-30T06:56:08;101415.91;;;15.59;62.48
30073;BME280;16897;52.422;13.678;2022-10-30T07:00:40;101435.50;;;15.67;62.36
30073;BME280;16897;52.422;13.678;2022-10-30T07:05:05;101456.13;;;15.75;62.38
30073;BME280;16897;52.422;13.678;2022-10-30T07:09:07;101455.16;;;15.76;62.44
30073;BME280;16897;52.422;13.678;2022-10-30T07:13:09;101435.25;;;15.72;62.56
30073;BME280;16897;52.422;13.678;2022-10-30T07:17:20;101411.75;;;15.55;62.50
30073;BME280;16897;52.422;13.678;2022-10-30T07:21:28;101429.97;;;15.72;62.58
30073;BME280;16897;52.422;13.678;2022-10-30T07:25:32;101451.81;;;15.87;62.59
30073;BME280;16897;52.422;13.678;2022-10-30T07:29:57;101454.38;;;15.88;62.70
30073;BME280;16897;52.422;13.678;2022-10-30T07:34:09;101464.41;;;15.96;62.77
30073;BME280;16897;52.422;13.678;2022-10-30T07:38:19;101429.31;;;15.68;62.97
30073;BME280;16897;52.422;13.678;2022-10-30T07:42:31;101472.81;;;15.88;62.94
30073;BME280;16897;52.422;13.678;2022-10-30T07:46:52;101484.09;;;16.03;62.73
30073;BME280;16897;52.422;13.678;2022-10-30T07:51:08;101485.59;;;16.07;62.95
30073;BME280;16897;52.422;13.678;2022-10-30T07:55:10;101488.03;;;16.10;62.74
30073;BME280;16897;52.422;13.678;2022-10-30T07:59:18;101463.16;;;16.02;62.97
30073;BME280;16897;52.422;13.678;2022-10-30T08:03:33;101460.31;;;16.05;62.96
30073;BME280;16897;52.422;13.678;2022-10-30T08:07:55;101459.81;;;16.12;63.11
30073;BME280;16897;52.422;13.678;2022-10-30T08:11:56;101472.88;;;16.27;63.28
30073;BME280;16897;52.422;13.678;2022-10-30T08:15:58;101490.63;;;16.37;63.16
30073;BME280;16897;52.422;13.678;2022-10-30T08:20:00;101447.16;;;16.30;63.01
30073;BME280;16897;52.422;13.678;2022-10-30T08:24:02;101449.50;;;16.35;63.15
30073;BME280;16897;52.422;13.678;2022-10-30T08:28:07;101474.19;;;16.59;63.39
30073;BME280;16897;52.422;13.678;2022-10-30T08:32:11;101483.25;;;16.68;63.59
30073;BME280;16897;52.422;13.678;2022-10-30T08:36:31;101443.59;;;16.70;63.35
30073;BME280;16897;52.422;13.678;2022-10-30T08:40:33;101477.91;;;16.83;63.36
30073;BME280;16897;52.422;13.678;2022-10-30T08:44:41;101437.28;;;16.85;63.73
30073;BME280;16897;52.422;13.678;2022-10-30T08:48:57;101456.47;;;16.87;63.82
30073;BME280;16897;52.422;13.678;2022-10-30T08:53:12;101476.28;;;17.06;63.71
30073;BME280;16897;52.422;13.678;2022-10-30T08:57:13;101428.91;;;17.04;63.61
30073;BME280;16897;52.422;13.678;2022-10-30T09:01:15;101457.88;;;17.30;63.83
30073;BME280;16897;52.422;13.678;2022-10-30T09:09:54;101417.47;;;17.40;63.79
30073;BME280;16897;52.422;13.678;2022-10-30T09:13:58;101419.84;;;17.56;63.98
30073;BME280;16897;52.422;13.678;2022-10-30T09:18:02;101477.97;;;18.04;64.01
30073;BME280;16897;52.422;13.678;2022-10-30T09:22:05;101420.00;;;17.90;63.84
30073;BME280;16897;52.422;13.678;2022-10-30T09:26:11;101432.00;;;18.18;63.87
30073;BME280;16897;52.422;13.678;2022-10-30T09:30:48;101479.19;;;18.58;63.89
30073;BME280;16897;52.422;13.678;2022-10-30T09:34:54;101441.44;;;18.56;63.90
30073;BME280;16897;52.422;13.678;2022-10-30T09:39:00;101477.44;;;18.92;63.73
30073;BME280;16897;52.422;13.678;2022-10-30T09:48:46;101471.03;;;19.29;63.65
30073;BME280;16897;52.422;13.678;2022-10-30T09:53:14;101453.53;;;19.49;63.91
30073;BME280;16897;52.422;13.678;2022-10-30T10:05:57;101446.28;;;19.94;63.59
30073;BME280;16897;52.422;13.678;2022-10-30T10:10:37;101428.56;;;19.95;63.48
30073;BME280;16897;52.422;13.678;2022-10-30T10:14:47;101438.00;;;20.29;63.57
30073;BME280;16897;52.422;13.678;2022-10-30T10:19:19;101447.31;;;20.45;63.64
30073;BME280;16897;52.422;13.678;2022-10-30T10:23:38;101434.34;;;20.51;63.45
30073;BME280;16897;52.422;13.678;2022-10-30T10:28:02;101450.84;;;20.76;63.27
30073;BME280;16897;52.422;13.678;2022-10-30T10:46:10;101445.16;;;21.31;62.58
30073;BME280;16897;52.422;13.678;2022-10-30T10:50:33;101443.38;;;21.41;62.80
30073;BME280;16897;52.422;13.678;2022-10-30T10:54:45;101453.91;;;21.52;62.18
30073;BME280;16897;52.422;13.678;2022-10-30T11:03:45;101452.78;;;21.64;62.21
30073;BME280;16897;52.422;13.678;2022-10-30T11:07:52;101424.22;;;21.57;61.94
30073;BME280;16897;52.422;13.678;2022-10-30T11:11:57;101390.94;;;21.43;61.55
30073;BME280;16897;52.422;13.678;2022-10-30T11:16:20;101448.16;;;21.76;61.44
30073;BME280;16897;52.422;13.678;2022-10-30T11:20:56;101442.72;;;21.78;61.66
30073;BME280;16897;52.422;13.678;2022-10-30T11:25:33;101417.09;;;21.67;61.44
30073;BME280;16897;52.422;13.678;2022-10-30T11:29:36;101427.59;;;21.78;61.17
30073;BME280;16897;52.422;13.678;2022-10-30T11:33:37;101431.91;;;21.89;61.45
30073;BME280;16897;52.422;13.678;2022-10-30T11:37:42;101436.00;;;21.93;61.09
30073;BME280;16897;52.422;13.678;2022-10-30T11:46:00;101423.13;;;21.88;60.72
30073;BME280;16897;52.422;13.678;2022-10-30T11:50:16;101436.97;;;22.02;60.89
30073;BME280;16897;52.422;13.678;2022-10-30T11:54:21;101445.19;;;22.08;60.64
30073;BME280;16897;52.422;13.678;2022-10-30T11:58:34;101434.84;;;22.05;60.64
30073;BME280;16897;52.422;13.678;2022-10-30T12:02:43;101434.44;;;22.10;60.59
30073;BME280;16897;52.422;13.678;2022-10-30T12:06:46;101405.47;;;21.97;60.31
30073;BME280;16897;52.422;13.678;2022-10-30T12:11:00;101437.66;;;22.23;60.34
30073;BME280;16897;52.422;13.678;2022-10-30T12:15:19;101435.13;;;22.31;60.46
30073;BME280;16897;52.422;13.678;2022-10-30T12:19:23;101384.59;;;22.12;60.22
30073;BME280;16897;52.422;13.678;2022-10-30T12:23:27;101351.97;;;22.00;60.04
30073;BME280;16897;52.422;13.678;2022-10-30T12:27:35;101414.78;;;22.40;59.79
30073;BME280;16897;52.422;13.678;2022-10-30T12:31:48;101425.53;;;22.48;59.72
30073;BME280;16897;52.422;13.678;2022-10-30T12:36:02;101421.75;;;22.51;60.16
30073;BME280;16897;52.422;13.678;2022-10-30T12:40:27;101416.28;;;22.52;59.59
30073;BME280;16897;52.422;13.678;2022-10-30T12:44:45;101415.69;;;22.59;59.66
30073;BME280;16897;52.422;13.678;2022-10-30T12:49:02;101381.59;;;22.35;59.71
30073;BME280;16897;52.422;13.678;2022-10-30T12:53:35;101425.47;;;22.68;59.38
30073;BME280;16897;52.422;13.678;2022-10-30T13:02:12;101415.81;;;22.67;59.52
30073;BME280;16897;52.422;13.678;2022-10-30T13:06:21;101414.06;;;22.75;59.04
30073;BME280;16897;52.422;13.678;2022-10-30T13:10:48;101417.31;;;22.79;59.45
30073;BME280;16897;52.422;13.678;2022-10-30T13:15:00;101401.31;;;22.79;59.24
30073;BME280;16897;52.422;13.678;2022-10-30T13:19:08;101402.28;;;22.78;58.95
30073;BME280;16897;52.422;13.678;2022-10-30T13:23:20;101399.09;;;22.74;59.01
30073;BME280;16897;52.422;13.678;2022-10-30T13:27:44;101411.59;;;22.92;58.84
30073;BME280;16897;52.422;13.678;2022-10-30T13:36:26;101397.38;;;22.83;58.99
30073;BME280;16897;52.422;13.678;2022-10-30T13:41:06;101401.38;;;22.97;59.11
30073;BME280;16897;52.422;13.678;2022-10-30T13:49:57;101402.59;;;23.03;58.92
30073;BME280;16897;52.422;13.678;2022-10-30T13:54:32;101389.34;;;22.93;58.51
30073;BME280;16897;52.422;13.678;2022-10-30T13:58:56;101391.81;;;22.94;58.93
30073;BME280;16897;52.422;13.678;2022-10-30T14:11:48;101387.75;;;23.00;58.38
30073;BME280;16897;52.422;13.678;2022-10-30T14:15:53;101387.63;;;22.92;58.66
30073;BME280;16897;52.422;13.678;2022-10-30T14:24:26;101424.19;;;23.09;58.61
30073;BME280;16897;52.422;13.678;2022-10-30T14:28:41;101405.97;;;23.05;58.27
30073;BME280;16897;52.422;13.678;2022-10-30T14:32:49;101414.66;;;23.07;58.19
30073;BME280;16897;52.422;13.678;2022-10-30T14:36:51;101402.06;;;22.99;58.13
30073;BME280;16897;52.422;13.678;2022-10-30T14:45:26;101411.47;;;22.93;58.06
30073;BME280;16897;52.422;13.678;2022-10-30T14:49:47;101424.53;;;22.96;57.85
30073;BME280;16897;52.422;13.678;2022-10-30T14:58:29;101402.06;;;22.71;57.96
30073;BME280;16897;52.422;13.678;2022-10-30T15:02:42;101404.16;;;22.68;58.24
30073;BME280;16897;52.422;13.678;2022-10-30T15:07:52;101422.50;;;22.71;58.22
30073;BME280;16897;52.422;13.678;2022-10-30T15:11:55;101401.19;;;22.43;57.73
30073;BME280;16897;52.422;13.678;2022-10-30T15:16:04;101419.69;;;22.45;58.14
30073;BME280;16897;52.422;13.678;2022-10-30T15:20:22;101424.19;;;22.35;58.12
30073;BME280;16897;52.422;13.678;2022-10-30T15:24:26;101430.78;;;22.30;57.94
30073;BME280;16897;52.422;13.678;2022-10-30T15:28:40;101349.22;;;21.73;57.98
30073;BME280;16897;52.422;13.678;2022-10-30T15:32:42;101365.19;;;21.73;58.22
30073;BME280;16897;52.422;13.678;2022-10-30T15:36:43;101381.84;;;21.75;58.20
30073;BME280;16897;52.422;13.678;2022-10-30T15:40:45;101388.69;;;21.68;57.88
30073;BME280;16897;52.422;13.678;2022-10-30T15:44:47;101365.50;;;21.50;58.01
30073;BME280;16897;52.422;13.678;2022-10-30T15:48:49;101381.16;;;21.53;57.82
30073;BME280;16897;52.422;13.678;2022-10-30T15:52:51;101379.91;;;21.48;58.11
30073;BME280;16897;52.422;13.678;2022-10-30T15:56:57;101372.50;;;21.41;58.25
30073;BME280;16897;52.422;13.678;2022-10-30T16:01:00;101346.97;;;21.19;58.28
30073;BME280;16897;52.422;13.678;2022-10-30T16:05:22;101381.66;;;21.28;58.08
30073;BME280;16897;52.422;13.678;2022-10-30T16:09:26;101382.91;;;21.24;58.16
30073;BME280;16897;52.422;13.678;2022-10-30T16:13:29;101381.66;;;21.18;58.22
30073;BME280;16897;52.422;13.678;2022-10-30T16:17:32;101366.69;;;21.07;57.93
30073;BME280;16897;52.422;13.678;2022-10-30T16:21:34;101367.09;;;21.03;58.26
30073;BME280;16897;52.422;13.678;2022-10-30T16:25:38;101399.25;;;21.09;57.96
30073;BME280;16897;52.422;13.678;2022-10-30T16:29:41;101368.16;;;20.81;57.95
30073;BME280;16897;52.422;13.678;2022-10-30T16:33:43;101377.34;;;20.76;57.77
30073;BME280;16897;52.422;13.678;2022-10-30T16:37:46;101381.66;;;20.68;58.13
30073;BME280;16897;52.422;13.678;2022-10-30T16:41:48;101386.94;;;20.58;57.80
30073;BME280;16897;52.422;13.678;2022-10-30T16:45:51;101373.97;;;20.44;57.71
30073;BME280;16897;52.422;13.678;2022-10-30T16:49:57;101379.25;;;20.34;58.25
30073;BME280;16897;52.422;13.678;2022-10-30T16:53:59;101370.97;;;20.27;57.77
30073;BME280;16897;52.422;13.678;2022-10-30T16:58:01;101373.97;;;20.13;57.96
30073;BME280;16897;52.422;13.678;2022-10-30T17:02:16;101389.31;;;20.09;57.82
30073;BME280;16897;52.422;13.678;2022-10-30T17:06:40;101386.75;;;19.98;57.82
30073;BME280;16897;52.422;13.678;2022-10-30T17:15:00;101400.00;;;19.98;57.93
30073;BME280;16897;52.422;13.678;2022-10-30T17:23:33;101395.16;;;19.82;58.41
30073;BME280;16897;52.422;13.678;2022-10-30T17:27:45;101451.41;;;20.07;58.12
30073;BME280;16897;52.422;13.678;2022-10-30T17:31:49;101387.50;;;19.57;58.06
30073;BME280;16897;52.422;13.678;2022-10-30T17:35:51;101405.09;;;19.58;58.27
30073;BME280;16897;52.422;13.678;2022-10-30T17:39:53;101405.59;;;19.52;58.18
30073;BME280;16897;52.422;13.678;2022-10-30T17:43:55;101390.50;;;19.31;57.97
30073;BME280;16897;52.422;13.678;2022-10-30T17:47:57;101413.81;;;19.37;58.22
30073;BME280;16897;52.422;13.678;2022-10-30T17:51:59;101412.06;;;19.27;58.22
30073;BME280;16897;52.422;13.678;2022-10-30T17:56:16;101395.34;;;19.15;58.36
30073;BME280;16897;52.422;13.678;2022-10-30T18:00:19;101404.63;;;19.09;58.00
30073;BME280;16897;52.422;13.678;2022-10-30T18:04:21;101416.31;;;19.07;58.23
30073;BME280;16897;52.422;13.678;2022-10-30T18:08:23;101418.72;;;18.98;58.05
30073;BME280;16897;52.422;13.678;2022-10-30T18:12:25;101413.44;;;18.87;58.14
30073;BME280;16897;52.422;13.678;2022-10-30T18:16:27;101405.72;;;18.73;58.01
30073;BME280;16897;52.422;13.678;2022-10-30T18:20:29;101404.88;;;18.61;58.02
30073;BME280;16897;52.422;13.678;2022-10-30T18:24:31;101449.06;;;18.83;58.05
30073;BME280;16897;52.422;13.678;2022-10-30T18:28:33;101393.81;;;18.45;57.99
30073;BME280;16897;52.422;13.678;2022-10-30T18:32:35;101402.94;;;18.41;58.33
30073;BME280;16897;52.422;13.678;2022-10-30T18:36:36;101411.94;;;18.38;58.11
30073;BME280;16897;52.422;13.678;2022-10-30T18:40:39;101416.16;;;18.29;58.11
30073;BME280;16897;52.422;13.678;2022-10-30T18:44:41;101404.47;;;18.21;58.36
30073;BME280;16897;52.422;13.678;2022-10-30T18:48:44;101426.47;;;18.21;58.35
30073;BME280;16897;52.422;13.678;2022-10-30T18:52:46;101417.44;;;18.12;58.34
30073;BME280;16897;52.422;13.678;2022-10-30T18:56:48;101428.72;;;18.14;58.47
30073;BME280;16897;52.422;13.678;2022-10-30T19:00:50;101470.25;;;18.37;58.39
30073;BME280;16897;52.422;13.678;2022-10-30T19:04:52;101442.91;;;18.13;58.26
30073;BME280;16897;52.422;13.678;2022-10-30T19:08:53;101464.06;;;18.13;58.03
30073;BME280;16897;52.422;13.678;2022-10-30T19:17:06;101442.84;;;17.91;58.23
30073;BME280;16897;52.422;13.678;2022-10-30T19:21:21;101417.81;;;17.60;58.07
30073;BME280;16897;52.422;13.678;2022-10-30T19:25:30;101447.78;;;17.72;58.28
30073;BME280;16897;52.422;13.678;2022-10-30T19:29:32;101452.06;;;17.61;58.23
30073;BME280;16897;52.422;13.678;2022-10-30T19:33:34;101443.84;;;17.53;58.02
30073;BME280;16897;52.422;13.678;2022-10-30T19:37:36;101403.19;;;17.19;58.15
30073;BME280;16897;52.422;13.678;2022-10-30T19:41:38;101400.66;;;17.17;58.32
30073;BME280;16897;52.422;13.678;2022-10-30T19:45:41;101451.72;;;17.42;58.34
30073;BME280;16897;52.422;13.678;2022-10-30T19:49:43;101447.09;;;17.33;58.56
30073;BME280;16897;52.422;13.678;2022-10-30T19:53:45;101452.38;;;17.33;58.37
30073;BME280;16897;52.422;13.678;2022-10-30T19:57:47;101461.03;;;17.35;58.39
30073;BME280;16897;52.422;13.678;2022-10-30T20:01:52;101398.94;;;16.92;58.46
30073;BME280;16897;52.422;13.678;2022-10-30T20:05:54;101415.72;;;17.04;58.31
30073;BME280;16897;52.422;13.678;2022-10-30T20:09:56;101449.75;;;17.20;58.55
30073;BME280;16897;52.422;13.678;2022-10-30T20:13:57;101368.91;;;16.69;58.28
30073;BME280;16897;52.422;13.678;2022-10-30T20:17:59;101454.25;;;17.07;58.52
30073;BME280;16897;52.422;13.678;2022-10-30T20:22:01;101397.84;;;16.58;58.55
30073;BME280;16897;52.422;13.678;2022-10-30T20:26:09;101454.78;;;16.86;58.50
30073;BME280;16897;52.422;13.678;2022-10-30T20:30:21;101445.91;;;16.74;58.51
30073;BME280;16897;52.422;13.678;2022-10-30T20:34:22;101413.00;;;16.42;58.82
30073;BME280;16897;52.422;13.678;2022-10-30T20:38:28;101438.75;;;16.51;58.63
30073;BME280;16897;52.422;13.678;2022-10-30T20:42:30;101481.88;;;16.75;58.58
30073;BME280;16897;52.422;13.678;2022-10-30T20:46:35;101490.75;;;16.74;58.78
30073;BME280;16897;52.422;13.678;2022-10-30T20:50:37;101494.31;;;16.73;58.68
30073;BME280;16897;52.422;13.678;2022-10-30T20:54:39;101475.84;;;16.60;58.96
30073;BME280;16897;52.422;13.678;2022-10-30T20:58:41;101467.63;;;16.52;58.90
30073;BME280;16897;52.422;13.678;2022-10-30T21:02:45;101462.78;;;16.46;58.94
30073;BME280;16897;52.422;13.678;2022-10-30T21:06:47;101479.75;;;16.55;58.93
30073;BME280;16897;52.422;13.678;2022-10-30T21:10:48;101480.50;;;16.44;58.94
30073;BME280;16897;52.422;13.678;2022-10-30T21:14:50;101489.91;;;16.48;58.83
30073;BME280;16897;52.422;13.678;2022-10-30T21:18:52;101481.03;;;16.49;58.92
30073;BME280;16897;52.422;13.678;2022-10-30T21:22:54;101419.06;;;16.04;58.75
30073;BME280;16897;52.422;13.678;2022-10-30T21:26:55;101468.38;;;16.29;58.74
30073;BME280;16897;52.422;13.678;2022-10-30T21:31:05;101462.66;;;16.22;58.58
30073;BME280;16897;52.422;13.678;2022-10-30T21:35:07;101467.16;;;16.20;58.84
30073;BME280;16897;52.422;13.678;2022-10-30T21:39:09;101470.97;;;16.16;58.93
30073;BME280;16897;52.422;13.678;2022-10-30T21:43:10;101477.50;;;16.10;58.74
30073;BME280;16897;52.422;13.678;2022-10-30T21:47:13;101459.00;;;15.98;58.85
30073;BME280;16897;52.422;13.678;2022-10-30T21:51:21;101450.97;;;15.86;58.83
30073;BME280;16897;52.422;13.678;2022-10-30T21:55:23;101482.44;;;16.02;58.80
30073;BME280;16897;52.422;13.678;2022-10-30T21:59:24;101466.88;;;15.85;58.84
30073;BME280;16897;52.422;13.678;2022-10-30T22:03:26;101469.41;;;15.86;58.91
30073;BME280;16897;52.422;13.678;2022-10-30T22:07:27;101455.56;;;15.70;58.74
30073;BME280;16897;52.422;13.678;2022-10-30T22:11:29;101430.19;;;15.55;58.87
30073;BME280;16897;52.422;13.678;2022-10-30T22:15:31;101470.59;;;15.68;58.85
30073;BME280;16897;52.422;13.678;2022-10-30T22:19:32;101467.50;;;15.61;58.90
30073;BME280;16897;52.422;13.678;2022-10-30T22:23:36;101482.34;;;15.62;59.05
30073;BME280;16897;52.422;13.678;2022-10-30T22:27:38;101491.84;;;15.65;58.85
30073;BME280;16897;52.422;13.678;2022-10-30T22:31:39;101432.41;;;15.34;58.89
30073;BME280;16897;52.422;13.678;2022-10-30T22:35:42;101486.78;;;15.62;59.07
30073;BME280;16897;52.422;13.678;2022-10-30T22:39:44;101480.97;;;15.57;58.89
30073;BME280;16897;52.422;13.678;2022-10-30T22:43:47;101443.06;;;15.32;59.17
30073;BME280;16897;52.422;13.678;2022-10-30T22:47:49;101489.91;;;15.54;59.05
30073;BME280;16897;52.422;13.678;2022-10-30T22:51:51;101485.88;;;15.48;58.98
30073;BME280;16897;52.422;13.678;2022-10-30T22:55:53;101489.94;;;15.40;58.86
30073;BME280;16897;52.422;13.678;2022-10-30T22:59:55;101459.78;;;15.17;58.99
30073;BME280;16897;52.422;13.678;2022-10-30T23:03:59;101492.28;;;15.30;58.89